createdAt,value
2022-11-07T00:02:10.315Z,19.95
2022-11-07T00:04:40.173Z,20.58
2022-11-07T00:07:10.848Z,22.52
2022-11-07T00:09:38.999Z,22.95
2022-11-07T00:12:07.696Z,22.27
2022-11-07T00:14:35.925Z,20.63
2022-11-07T00:17:03.889Z,21.83
2022-11-07T00:19:31.817Z,18.17
2022-11-07T00:22:01.139Z,22.05
2022-11-07T00:24:29.146Z,24.70
2022-11-07T00:26:57.172Z,22.92
2022-11-07T00:29:25.216Z,22.02
2022-11-07T00:31:53.234Z,26.75
2022-11-07T00:34:21.284Z,22.83
2022-11-07T00:36:49.266Z,22.52
2022-11-07T00:39:18.776Z,24.98
2022-11-07T00:41:50.445Z,20.52
2022-11-07T00:44:18.459Z,23.27
2022-11-07T00:46:46.432Z,23.83
2022-11-07T00:49:14.374Z,22.90
2022-11-07T00:51:42.558Z,21.10
2022-11-07T00:54:10.650Z,15.93
2022-11-07T00:56:39.963Z,22.45
2022-11-07T00:59:09.989Z,26.52
2022-11-07T01:01:38.293Z,24.45
2022-11-07T01:04:24.226Z,22.75
2022-11-07T01:06:52.196Z,20.10
2022-11-07T01:09:22.436Z,22.65
2022-11-07T01:11:51.883Z,18.45
2022-11-07T01:14:21.457Z,19.58
2022-11-07T01:16:49.406Z,25.85
2022-11-07T01:19:19.489Z,17.52
2022-11-07T01:21:47.546Z,19.23
2022-11-07T01:24:16.454Z,19.42
2022-11-07T01:26:47.799Z,21.02
2022-11-07T01:29:17.855Z,18.55
2022-11-07T01:31:46.078Z,20.10
2022-11-07T01:34:14.069Z,18.52
2022-11-07T01:36:42.058Z,19.35
2022-11-07T01:39:10.576Z,20.40
2022-11-07T01:41:40.814Z,18.90
2022-11-07T01:44:45.954Z,13.95
2022-11-07T01:47:15.306Z,17.88
2022-11-07T01:49:44.407Z,23.02
2022-11-07T01:52:16.580Z,16.60
2022-11-07T01:54:49.848Z,22.05
2022-11-07T01:57:22.663Z,18.92
2022-11-07T01:59:54.897Z,17.00
2022-11-07T02:02:25.540Z,18.58
2022-11-07T02:04:54.123Z,20.77
2022-11-07T02:07:24.139Z,21.13
2022-11-07T02:09:53.524Z,19.55
2022-11-07T02:12:23.462Z,19.30
2022-11-07T02:14:51.564Z,19.02
2022-11-07T02:17:19.955Z,19.20
2022-11-07T02:19:51.901Z,17.85
2022-11-07T02:22:27.067Z,20.58
2022-11-07T02:24:59.374Z,18.48
2022-11-07T02:27:29.980Z,15.40
2022-11-07T02:30:02.360Z,15.68
2022-11-07T02:32:33.486Z,20.23
2022-11-07T02:35:04.657Z,17.60
2022-11-07T02:37:36.599Z,27.63
2022-11-07T02:40:09.159Z,20.33
2022-11-07T02:42:44.237Z,20.23
2022-11-07T02:45:14.904Z,19.80
2022-11-07T02:47:43.419Z,20.65
2022-11-07T02:50:13.376Z,17.95
2022-11-07T02:52:43.318Z,17.15
2022-11-07T02:55:14.330Z,15.32
2022-11-07T02:57:45.622Z,17.10
2022-11-07T03:00:15.833Z,15.90
2022-11-07T03:02:46.954Z,16.77
2022-11-07T03:05:15.985Z,14.88
2022-11-07T03:07:46.416Z,17.88
2022-11-07T03:10:16.951Z,15.68
2022-11-07T03:12:44.918Z,17.10
2022-11-07T03:15:13.715Z,18.35
2022-11-07T03:17:41.954Z,13.25
2022-11-07T03:20:11.384Z,16.33
2022-11-07T03:22:39.820Z,16.33
2022-11-07T03:25:09.189Z,18.60
2022-11-07T03:27:46.991Z,15.23
2022-11-07T03:30:15.324Z,15.45
2022-11-07T03:32:43.313Z,117.85
2022-11-07T03:35:11.762Z,17.20
2022-11-07T03:37:39.895Z,12.27
2022-11-07T03:40:09.074Z,16.80
2022-11-07T03:42:41.188Z,16.35
2022-11-07T03:45:10.994Z,15.48
2022-11-07T03:47:40.486Z,16.52
2022-11-07T03:50:10.332Z,19.05
2022-11-07T03:52:38.281Z,15.98
2022-11-07T03:55:07.601Z,14.57
2022-11-07T03:57:35.684Z,16.65
2022-11-07T04:00:06.569Z,15.70
2022-11-07T04:02:39.986Z,20.10
2022-11-07T04:05:08.633Z,16.13
2022-11-07T04:07:36.591Z,18.05
2022-11-07T04:10:04.876Z,22.80
2022-11-07T04:12:50.518Z,19.13
2022-11-07T04:15:36.671Z,19.23
2022-11-07T04:18:04.782Z,17.05
2022-11-07T04:20:32.714Z,16.17
2022-11-07T04:23:00.755Z,18.15
2022-11-07T04:25:46.379Z,17.25
2022-11-07T04:28:16.179Z,16.60
2022-11-07T04:30:45.463Z,15.23
2022-11-07T04:33:13.644Z,18.58
2022-11-07T04:35:41.895Z,14.43
2022-11-07T04:38:09.798Z,17.40
2022-11-07T04:40:37.708Z,15.43
2022-11-07T04:43:09.141Z,17.65
2022-11-07T04:45:37.825Z,17.23
2022-11-07T04:48:08.493Z,13.13
2022-11-07T04:50:36.453Z,16.05
2022-11-07T04:53:04.521Z,16.55
2022-11-07T04:55:32.472Z,16.77
2022-11-07T04:58:00.519Z,18.25
2022-11-07T05:00:28.450Z,17.85
2022-11-07T05:02:56.560Z,14.80
2022-11-07T05:05:25.934Z,14.07
2022-11-07T05:07:53.872Z,13.27
2022-11-07T05:10:23.727Z,17.10
2022-11-07T05:12:52.024Z,14.13
2022-11-07T05:15:20.196Z,16.88
2022-11-07T05:17:51.195Z,16.05
2022-11-07T05:20:30.244Z,15.10
2022-11-07T05:23:15.337Z,13.13
2022-11-07T05:25:45.545Z,17.67
2022-11-07T05:28:15.514Z,14.30
2022-11-07T05:30:44.692Z,15.50
2022-11-07T05:33:14.865Z,16.85
2022-11-07T05:35:44.636Z,15.00
2022-11-07T05:38:13.086Z,13.10
2022-11-07T05:40:42.072Z,14.65
2022-11-07T05:43:12.329Z,16.48
2022-11-07T05:45:41.130Z,15.77
2022-11-07T05:48:11.257Z,18.42
2022-11-07T05:50:40.070Z,17.15
2022-11-07T05:53:09.649Z,16.23
2022-11-07T05:55:37.700Z,12.07
2022-11-07T05:58:10.461Z,17.73
2022-11-07T06:00:38.456Z,18.92
2022-11-07T06:03:06.487Z,15.48
2022-11-07T06:05:34.558Z,16.15
2022-11-07T06:08:02.594Z,18.25
2022-11-07T06:10:31.863Z,15.40
2022-11-07T06:13:00.692Z,21.23
2022-11-07T06:15:30.438Z,20.38
2022-11-07T06:18:00.621Z,20.58
2022-11-07T06:20:28.877Z,22.58
2022-11-07T06:22:58.769Z,18.63
2022-11-07T06:25:26.941Z,18.45
2022-11-07T06:28:00.495Z,15.52
2022-11-07T06:30:28.712Z,20.02
2022-11-07T06:32:56.841Z,22.55
2022-11-07T06:35:24.782Z,15.23
2022-11-07T06:37:52.726Z,18.52
2022-11-07T06:40:23.082Z,16.30
2022-11-07T06:42:51.010Z,13.57
2022-11-07T06:45:20.342Z,14.02
2022-11-07T06:47:48.382Z,17.52
2022-11-07T06:50:16.421Z,17.38
2022-11-07T06:52:44.351Z,14.27
2022-11-07T06:55:12.282Z,17.15
2022-11-07T06:57:40.225Z,13.23
2022-11-07T07:00:11.716Z,15.07
2022-11-07T07:05:31.333Z,13.40
2022-11-07T07:07:59.275Z,15.73
2022-11-07T07:10:27.577Z,12.18
2022-11-07T07:12:56.439Z,12.05
2022-11-07T07:15:24.578Z,12.98
2022-11-07T07:17:53.845Z,35.53
2022-11-07T07:20:21.815Z,35.00
2022-11-07T07:22:56.052Z,26.73
2022-11-07T07:25:27.647Z,18.45
2022-11-07T07:27:55.793Z,20.30
2022-11-07T07:30:23.825Z,13.63
2022-11-07T07:32:53.138Z,14.80
2022-11-07T07:35:21.923Z,18.70
2022-11-07T07:37:51.824Z,19.17
2022-11-07T07:40:20.309Z,19.10
2022-11-07T07:42:48.419Z,13.63
2022-11-07T07:45:17.303Z,14.07
2022-11-07T07:47:45.531Z,16.63
2022-11-07T07:50:15.142Z,13.70
2022-11-07T07:52:43.753Z,17.23
2022-11-07T07:55:11.936Z,24.58
2022-11-07T07:57:41.067Z,18.17
2022-11-07T08:00:11.268Z,19.35
2022-11-07T08:02:43.560Z,21.48
2022-11-07T08:05:12.669Z,19.85
2022-11-07T08:07:48.082Z,21.35
2022-11-07T08:10:40.400Z,19.63
2022-11-07T08:13:05.153Z,24.27
2022-11-07T08:15:34.103Z,18.42
2022-11-07T08:18:03.043Z,18.50
2022-11-07T08:20:31.160Z,18.95
2022-11-07T08:23:04.357Z,13.52
2022-11-07T08:25:32.538Z,18.48
2022-11-07T08:28:01.222Z,17.75
2022-11-07T08:30:31.630Z,13.95
2022-11-07T08:33:01.043Z,14.65
2022-11-07T08:35:29.270Z,13.30
2022-11-07T08:37:57.310Z,10.82
2022-11-07T08:40:26.917Z,16.38
2022-11-07T08:42:59.292Z,12.07
2022-11-07T08:45:27.332Z,15.18
2022-11-07T08:47:58.004Z,15.20
2022-11-07T08:50:26.349Z,14.80
2022-11-07T08:52:59.584Z,14.35
2022-11-07T08:55:31.774Z,12.70
2022-11-07T08:58:00.947Z,15.40
2022-11-07T09:00:30.056Z,16.25
2022-11-07T09:03:24.317Z,18.58
2022-11-07T09:05:45.988Z,18.02
2022-11-07T09:08:16.251Z,16.67
2022-11-07T09:10:45.646Z,18.80
2022-11-07T09:13:15.130Z,17.55
2022-11-07T09:15:49.330Z,21.45
2022-11-07T09:18:18.816Z,16.95
2022-11-07T09:20:47.228Z,20.58
2022-11-07T09:23:15.664Z,20.40
2022-11-07T09:25:45.638Z,12.88
2022-11-07T09:28:13.686Z,20.77
2022-11-07T09:30:41.648Z,13.90
2022-11-07T09:33:09.616Z,13.43
2022-11-07T09:35:37.585Z,14.50
2022-11-07T09:38:05.643Z,21.58
2022-11-07T09:40:44.418Z,14.48
2022-11-07T09:43:39.707Z,14.68
2022-11-07T09:46:17.258Z,6.50
2022-11-07T09:48:50.470Z,11.25
2022-11-07T09:51:28.265Z,8.38
2022-11-07T09:54:01.857Z,9.13
2022-11-07T09:56:32.732Z,10.30
2022-11-07T09:59:13.844Z,10.20
2022-11-07T10:01:42.660Z,9.00
2022-11-07T10:04:24.671Z,8.20
2022-11-07T10:06:59.244Z,9.68
2022-11-07T10:09:35.637Z,6.93
2022-11-07T10:12:14.383Z,6.78
2022-11-07T10:14:53.570Z,6.97
2022-11-07T10:17:29.832Z,8.48
2022-11-07T10:20:24.552Z,5.00
2022-11-07T10:23:07.229Z,5.55
2022-11-07T10:25:43.010Z,5.90
2022-11-07T10:28:15.738Z,3.90
2022-11-07T10:30:48.204Z,4.70
2022-11-07T10:33:28.284Z,5.03
2022-11-07T10:36:03.063Z,4.75
2022-11-07T10:38:33.154Z,5.00
2022-11-07T10:41:01.212Z,2.35
2022-11-07T10:43:34.042Z,2.85
2022-11-07T10:46:06.261Z,2.78
2022-11-07T10:48:34.209Z,3.13
2022-11-07T10:51:02.195Z,2.72
2022-11-07T10:53:30.290Z,3.47
2022-11-07T10:55:59.783Z,3.08
2022-11-07T10:58:30.812Z,2.85
2022-11-07T11:01:06.162Z,4.30
2022-11-07T11:03:45.150Z,17.52
2022-11-07T11:06:23.246Z,4.75
2022-11-07T11:08:52.878Z,2.75
2022-11-07T11:11:32.884Z,4.35
2022-11-07T11:14:06.521Z,2.35
2022-11-07T11:16:38.809Z,5.15
2022-11-07T11:19:17.441Z,2.75
2022-11-07T11:21:47.289Z,3.22
2022-11-07T11:24:33.134Z,4.40
2022-11-07T11:27:05.526Z,5.22
2022-11-07T11:29:40.470Z,2.58
2022-11-07T11:32:21.243Z,2.95
2022-11-07T11:35:06.648Z,2.03
2022-11-07T11:37:39.886Z,5.38
2022-11-07T11:40:33.225Z,5.32
2022-11-07T11:43:08.327Z,3.47
2022-11-07T11:45:44.640Z,2.42
2022-11-07T11:48:24.673Z,3.35
2022-11-07T11:50:57.904Z,5.35
2022-11-07T11:53:26.000Z,1.60
2022-11-07T11:56:17.454Z,3.13
2022-11-07T11:58:54.783Z,2.10
2022-11-07T12:01:33.173Z,6.47
2022-11-07T12:04:18.527Z,2.97
2022-11-07T12:06:47.483Z,4.53
2022-11-07T12:09:33.911Z,5.40
2022-11-07T12:12:12.406Z,3.65
2022-11-07T12:14:57.587Z,5.70
2022-11-07T12:17:31.617Z,7.57
2022-11-07T12:20:12.184Z,3.47
2022-11-07T12:22:50.962Z,2.47
2022-11-07T12:25:26.748Z,4.95
2022-11-07T12:28:05.562Z,4.50
2022-11-07T12:30:43.687Z,2.95
2022-11-07T12:33:21.553Z,2.53
2022-11-07T12:35:55.421Z,5.20
2022-11-07T12:38:58.917Z,6.85
2022-11-07T12:41:38.840Z,3.83
2022-11-07T12:44:21.288Z,3.47
2022-11-07T12:46:53.928Z,4.32
2022-11-07T12:49:46.633Z,8.05
2022-11-07T12:52:41.370Z,5.88
2022-11-07T12:55:20.426Z,6.10
2022-11-07T12:57:52.541Z,5.72
2022-11-07T13:00:27.672Z,10.02
2022-11-07T13:03:26.674Z,4.50
2022-11-07T13:06:08.964Z,7.57
2022-11-07T13:08:42.226Z,2.80
2022-11-07T13:11:18.311Z,3.10
2022-11-07T13:14:05.742Z,5.53
2022-11-07T13:16:37.058Z,4.35
2022-11-07T13:19:12.247Z,2.63
2022-11-07T13:21:43.780Z,3.85
2022-11-07T13:24:22.226Z,7.07
2022-11-07T13:26:53.104Z,6.53
2022-11-07T13:29:35.411Z,4.45
2022-11-07T13:32:20.330Z,4.93
2022-11-07T13:34:57.688Z,4.43
2022-11-07T13:37:30.633Z,7.68
2022-11-07T13:40:04.770Z,0.45
2022-11-07T13:42:34.580Z,1.85
2022-11-07T13:45:17.932Z,4.47
2022-11-07T13:47:46.645Z,2.67
2022-11-07T13:50:20.853Z,2.70
2022-11-07T13:53:03.531Z,4.88
2022-11-07T13:55:42.360Z,6.20
2022-11-07T13:58:13.460Z,3.10
2022-11-07T14:00:41.466Z,3.28
2022-11-07T14:03:24.161Z,4.15
2022-11-07T14:05:52.731Z,3.05
2022-11-07T14:08:23.750Z,5.75
2022-11-07T14:10:54.245Z,6.88
2022-11-07T14:13:25.949Z,2.78
2022-11-07T14:15:56.262Z,4.45
2022-11-07T14:18:27.830Z,5.25
2022-11-07T14:20:57.607Z,5.93
2022-11-07T14:23:29.375Z,3.97
2022-11-07T14:26:01.110Z,3.55
2022-11-07T14:28:36.697Z,4.88
2022-11-07T14:31:06.568Z,4.07
2022-11-07T14:33:34.770Z,3.05
2022-11-07T14:36:09.052Z,4.22
2022-11-07T14:38:37.083Z,2.67
2022-11-07T14:41:06.800Z,11.25
2022-11-07T14:43:35.595Z,3.80
2022-11-07T14:46:14.321Z,4.50
2022-11-07T14:48:44.369Z,5.00
2022-11-07T14:51:14.569Z,4.00
2022-11-07T14:53:52.190Z,3.65
2022-11-07T14:56:29.032Z,5.97
2022-11-07T14:58:57.603Z,3.97
2022-11-07T15:01:28.795Z,4.30
2022-11-07T15:03:58.550Z,3.47
2022-11-07T15:06:33.173Z,4.78
2022-11-07T15:09:02.984Z,3.22
2022-11-07T15:11:34.869Z,4.50
2022-11-07T15:14:05.092Z,3.83
2022-11-07T15:16:37.706Z,3.10
2022-11-07T15:19:08.655Z,3.75
2022-11-07T15:21:39.144Z,5.32
2022-11-07T15:24:33.248Z,3.75
2022-11-07T15:27:04.753Z,2.42
2022-11-07T15:29:35.812Z,3.75
2022-11-07T15:32:12.955Z,2.42
2022-11-07T15:35:00.815Z,2.63
2022-11-07T15:37:29.743Z,3.85
2022-11-07T15:39:57.717Z,5.55
2022-11-07T15:42:27.004Z,3.25
2022-11-07T15:44:54.955Z,3.30
2022-11-07T15:47:23.619Z,7.57
2022-11-07T15:49:51.859Z,7.57
2022-11-07T15:52:19.820Z,4.68
2022-11-07T15:54:47.949Z,4.47
2022-11-07T15:57:15.929Z,9.23
2022-11-07T15:59:45.311Z,3.90
2022-11-07T16:02:17.278Z,3.75
2022-11-07T16:04:45.360Z,4.13
2022-11-07T16:07:16.880Z,4.30
2022-11-07T16:09:48.483Z,6.50
2022-11-07T16:12:18.396Z,6.78
2022-11-07T16:14:47.830Z,6.38
2022-11-07T16:17:16.887Z,7.88
2022-11-07T16:19:44.894Z,5.75
2022-11-07T16:22:13.427Z,7.65
2022-11-07T16:24:41.444Z,9.10
2022-11-07T16:27:11.322Z,9.05
2022-11-07T16:29:40.913Z,11.32
2022-11-07T16:32:17.587Z,7.78
2022-11-07T16:34:46.718Z,9.43
2022-11-07T16:37:14.694Z,6.60
2022-11-07T16:39:42.709Z,9.68
2022-11-07T16:42:13.559Z,8.35
2022-11-07T16:44:41.525Z,11.85
2022-11-07T16:47:14.813Z,12.05
2022-11-07T16:49:42.965Z,13.95
2022-11-07T16:52:15.794Z,9.32
2022-11-07T16:54:43.985Z,7.10
2022-11-07T16:57:13.864Z,7.90
2022-11-07T16:59:43.151Z,6.47
2022-11-07T17:02:21.295Z,9.20
2022-11-07T17:04:50.218Z,5.75
2022-11-07T17:07:19.105Z,5.93
2022-11-07T17:09:49.930Z,6.32
2022-11-07T17:12:20.789Z,7.57
2022-11-07T17:14:49.155Z,14.73
2022-11-07T17:17:20.137Z,10.02
2022-11-07T17:19:48.709Z,8.63
2022-11-07T17:22:17.681Z,8.48
2022-11-07T17:24:47.214Z,7.43
2022-11-07T17:27:21.603Z,8.30
2022-11-07T17:29:51.171Z,9.45
2022-11-07T17:32:20.855Z,8.20
2022-11-07T17:35:04.664Z,7.93
2022-11-07T17:37:37.605Z,7.72
2022-11-07T17:40:07.698Z,8.52
2022-11-07T17:42:38.253Z,11.60
2022-11-07T17:45:07.639Z,7.65
2022-11-07T17:47:37.279Z,7.55
2022-11-07T17:50:06.003Z,8.18
2022-11-07T17:52:33.971Z,8.73
2022-11-07T17:55:01.942Z,11.20
2022-11-07T17:57:32.337Z,10.88
2022-11-07T18:00:00.443Z,7.82
2022-11-07T18:02:28.534Z,11.55
2022-11-07T18:04:58.389Z,13.88
2022-11-07T18:07:26.398Z,10.43
2022-11-07T18:09:54.797Z,10.80
2022-11-07T18:12:23.330Z,11.50
2022-11-07T18:14:51.301Z,8.13
2022-11-07T18:17:19.248Z,8.57
2022-11-07T18:19:48.906Z,6.93
2022-11-07T18:22:18.502Z,11.50
2022-11-07T18:24:46.995Z,11.50
2022-11-07T18:27:14.935Z,10.90
2022-11-07T18:29:43.152Z,10.98
2022-11-07T18:32:11.164Z,12.20
2022-11-07T18:34:39.088Z,12.98
2022-11-07T18:37:07.025Z,10.93
2022-11-07T18:39:36.362Z,7.88
2022-11-07T18:42:04.385Z,11.10
2022-11-07T18:44:32.432Z,8.15
2022-11-07T18:47:00.374Z,10.82
2022-11-07T18:49:28.358Z,10.80
2022-11-07T18:51:57.325Z,8.23
2022-11-07T18:54:26.189Z,10.05
2022-11-07T18:56:56.095Z,9.07
2022-11-07T18:59:24.030Z,9.25
2022-11-07T19:01:52.087Z,10.38
2022-11-07T19:04:20.041Z,8.73
2022-11-07T19:06:57.589Z,8.23
2022-11-07T19:09:30.486Z,10.02
2022-11-07T19:12:00.901Z,7.90
2022-11-07T19:14:34.030Z,11.98
2022-11-07T19:17:02.060Z,11.90
2022-11-07T19:19:32.332Z,9.05
2022-11-07T19:22:00.261Z,12.75
2022-11-07T19:24:28.185Z,8.38
2022-11-07T19:26:56.107Z,12.95
2022-11-07T19:29:25.846Z,11.05
2022-11-07T19:31:54.891Z,11.77
2022-11-07T19:34:22.832Z,11.13
2022-11-07T19:36:51.010Z,7.85
2022-11-07T19:39:20.699Z,9.43
2022-11-07T19:41:50.689Z,9.95
2022-11-07T19:44:18.814Z,8.60
2022-11-07T19:46:48.080Z,11.57
2022-11-07T19:49:16.082Z,12.10
2022-11-07T19:51:43.993Z,29.65
2022-11-07T19:54:11.932Z,13.82
2022-11-07T19:56:39.934Z,12.93
2022-11-07T19:59:08.122Z,16.55
2022-11-07T20:01:36.506Z,21.50
2022-11-07T20:04:13.591Z,22.20
2022-11-07T20:06:41.548Z,22.00
2022-11-07T20:09:10.942Z,18.75
2022-11-07T20:11:38.928Z,18.58
2022-11-07T20:14:07.400Z,18.92
2022-11-07T20:16:37.106Z,15.38
2022-11-07T20:19:06.926Z,17.20
2022-11-07T20:21:35.007Z,15.90
2022-11-07T20:24:03.013Z,18.58
2022-11-07T20:26:33.488Z,16.52
2022-11-07T20:29:01.497Z,17.40
2022-11-07T20:31:34.480Z,13.98
2022-11-07T20:34:04.422Z,14.93
2022-11-07T20:36:34.043Z,14.77
2022-11-07T20:39:03.184Z,12.07
2022-11-07T20:41:31.243Z,17.88
2022-11-07T20:44:02.024Z,14.13
2022-11-07T20:46:31.163Z,11.40
2022-11-07T20:48:59.247Z,11.40
2022-11-07T20:51:27.267Z,11.35
2022-11-07T20:53:58.971Z,12.65
2022-11-07T20:56:28.126Z,10.63
2022-11-07T20:58:56.599Z,15.18
2022-11-07T21:01:27.724Z,11.70
2022-11-07T21:03:55.837Z,11.27
2022-11-07T21:06:23.752Z,11.77
2022-11-07T21:08:52.186Z,8.32
2022-11-07T21:11:21.559Z,9.13
2022-11-07T21:13:52.898Z,12.30
2022-11-07T21:16:22.191Z,12.20
2022-11-07T21:18:50.782Z,11.48
2022-11-07T21:21:21.325Z,11.57
2022-11-07T21:23:51.040Z,13.80
2022-11-07T21:26:22.240Z,11.38
2022-11-07T21:28:50.265Z,11.98
2022-11-07T21:31:21.759Z,9.90
2022-11-07T21:33:50.080Z,12.43
2022-11-07T21:36:19.598Z,14.00
2022-11-07T21:38:49.794Z,10.98
2022-11-07T21:41:18.075Z,14.25
2022-11-07T21:43:47.966Z,14.38
2022-11-07T21:46:18.407Z,15.80
2022-11-07T21:48:47.733Z,17.00
2022-11-07T21:51:17.910Z,13.77
2022-11-07T21:53:46.531Z,14.90
2022-11-07T21:56:16.809Z,14.93
2022-11-07T21:58:45.490Z,23.60
2022-11-07T22:01:14.810Z,23.63
2022-11-07T22:06:33.444Z,16.05
2022-11-07T22:09:01.575Z,18.15
2022-11-07T22:11:29.586Z,18.00
2022-11-07T22:13:59.936Z,18.85
2022-11-07T22:16:29.678Z,24.60
2022-11-07T22:18:59.105Z,21.05
2022-11-07T22:21:27.697Z,21.13
2022-11-07T22:23:57.187Z,21.92
2022-11-07T22:26:26.500Z,19.42
2022-11-07T22:28:55.128Z,18.42
2022-11-07T22:31:25.309Z,23.27
2022-11-07T22:33:55.592Z,17.55
2022-11-07T22:36:24.225Z,15.60
2022-11-07T22:38:52.628Z,21.10
2022-11-07T22:41:22.023Z,18.10
2022-11-07T22:43:50.834Z,21.45
2022-11-07T22:46:20.438Z,18.30
2022-11-07T22:48:49.410Z,17.13
2022-11-07T22:51:20.803Z,18.92
2022-11-07T22:53:49.084Z,14.07
2022-11-07T22:56:19.252Z,17.77
2022-11-07T22:58:48.337Z,17.58
2022-11-07T23:01:18.444Z,15.70
2022-11-07T23:03:48.702Z,13.82
2022-11-07T23:06:19.269Z,14.05
2022-11-07T23:08:48.085Z,11.45
2022-11-07T23:14:07.643Z,14.88
2022-11-07T23:16:37.589Z,19.45
2022-11-07T23:19:08.102Z,19.98
2022-11-07T23:21:37.820Z,14.38
2022-11-07T23:24:06.758Z,17.73
2022-11-07T23:26:35.441Z,19.58
2022-11-07T23:29:10.459Z,21.65
2022-11-07T23:31:39.816Z,19.02
2022-11-07T23:34:07.813Z,15.40
2022-11-07T23:36:37.443Z,20.02
2022-11-07T23:39:06.624Z,22.77
2022-11-07T23:41:35.145Z,16.75
2022-11-07T23:44:03.199Z,20.30
2022-11-07T23:46:49.036Z,18.67
2022-11-07T23:49:34.688Z,16.52
2022-11-07T23:52:04.514Z,12.63
2022-11-07T23:54:50.164Z,15.73
2022-11-07T23:57:18.095Z,15.73
